FVWD weather

Wedza Airport
Wedza, Mashonaland East Province, Zimbabwe

Public forecast

Using degrees Celsius for public forecast. Weather courtesy of forecast.io.

Closest aviation weather report (METAR) to Wedza Airport

Closest report is Robert Gabriel Mugabe International Airport, 49.7 nm (92.1 km) NW. Retrieved 2019/10/23 04:00 UTC (16 minutes ago):

FVRG 230400Z 06010KT CAVOK 20/13 Q1019 NOSIG

Closest aviation forecast (TAF) to Wedza Airport

Forecast is more than 12 hours old.

Closest forecast is Robert Gabriel Mugabe International Airport, 49.7 nm (92.1 km) NW. Retrieved 2019-10-19 00:00 UTC (4 days ago):

TAF FBSK 182100Z 1900/2006 23010KT CAVOK TAF FVRG 182200Z 1900/2006 VRB03KT CAVOK